Scholes International At Galveston Airport
KGLS : rendu visible

Aérodrome :











RETROUVEZ-NOUS SUR...

 
LOGIN :

S'inscrire | Disclaimer

   EN    FR    IT 

 









Légende :    VFR   VFR Marginal   IFR   IFR Intensif   IFR Très Intensif
Visi : 
Plafond : 
>= 8 km
>= 3000ft
5 à 8 km
1000 à 3000 ft
1500m à 5 km
500 à 1000 ft
800 à 1500m
200 à 500 ft
< 800m
< 200 ft
Symboles :   Orages  Brouillard  Fortes neiges  Fortes précipitations  Vent > 20 kt






- Altitude de l'aérodrome : 6 ft
- Code IATA : GLS


KGLS - Scholes International At Galveston

DERNIER METAR :
  • 210152Z AUTO 04011KT 10SM CLR 12/02 A3048 RMK AO2 SLP322 T01220017

METARs EXPIRÉS :
  • 210052Z AUTO 04007KT 10SM CLR 13/02 A3048 RMK AO2 SLP322 T01280017
  • 202352Z AUTO 01006KT 10SM CLR 13/01 A3048 RMK AO2 SLP321 T01330006 10156 20128 55003

TAF KGLS
Valide du 21 à 00h jusqu'au 22 à 00h UTC


202320Z 2100/2124 03008KT P6SM SKC
FM211700 07012KT P6SM SCT250
FM212300 09010KT P6SM FEW100 BKN250



MET'MAP, la Météo Aéronautique d'un coup d'oeil ! - Copyright ORBIFLY Décembre 2007 - Disclaimer

ORBIFLY MET'MAP TEAM :

Programmation & Développement : Alexandra Zaïnal
Sur une idée originale de : Baudouin d'Aumeries
Assistance à la programmation : Marc-Olivier Méhu
Soutien technique & logistique : Manuel Goepfert

Contact : metmap@orbifly.com




SOURCES & CREDITS :

   NOAA       Earth
Advisory